createdAt,value
2023-03-28T00:04:32.877Z,40.40
2023-03-28T00:07:04.390Z,40.20
2023-03-28T00:17:45.296Z,39.30
2023-03-28T00:31:15.266Z,39.90
2023-03-28T00:36:56.141Z,39.80
2023-03-28T00:42:06.433Z,40.00
2023-03-28T00:50:47.839Z,40.20
2023-03-28T00:53:20.992Z,40.30
2023-03-28T00:56:00.696Z,39.80
2023-03-28T00:58:40.045Z,39.90
2023-03-28T01:04:03.011Z,40.60
2023-03-28T01:06:43.863Z,40.80
2023-03-28T01:09:17.067Z,41.00
2023-03-28T01:11:52.314Z,41.00
2023-03-28T01:14:21.790Z,41.60
2023-03-28T01:16:49.760Z,41.90
2023-03-28T01:22:59.601Z,42.30
2023-03-28T01:25:46.123Z,43.40
2023-03-28T01:28:26.707Z,44.40
2023-03-28T01:31:18.829Z,43.60
2023-03-28T01:34:07.189Z,43.50
2023-03-28T01:37:08.035Z,44.10
2023-03-28T01:40:02.726Z,43.70
2023-03-28T01:42:30.904Z,43.80
2023-03-28T01:45:20.460Z,43.80
2023-03-28T01:48:10.705Z,43.70
2023-03-28T01:50:48.472Z,44.10
2023-03-28T01:53:28.616Z,44.50
2023-03-28T01:56:23.774Z,44.60
2023-03-28T01:59:00.698Z,44.70
2023-03-28T02:01:46.183Z,45.10
2023-03-28T02:06:59.435Z,45.80
2023-03-28T02:09:28.256Z,45.90
2023-03-28T02:15:20.398Z,46.20
2023-03-28T02:17:51.363Z,46.10
2023-03-28T02:25:56.039Z,46.40
2023-03-28T02:28:26.360Z,46.50
2023-03-28T02:42:34.761Z,47.30
2023-03-28T02:45:32.398Z,47.30
2023-03-28T02:51:08.924Z,47.60
2023-03-28T02:53:58.242Z,48.10
2023-03-28T02:59:33.524Z,48.60
2023-03-28T03:02:02.486Z,49.20
2023-03-28T03:04:30.779Z,49.40
2023-03-28T03:07:03.547Z,49.60
2023-03-28T03:09:32.332Z,49.40
2023-03-28T03:12:00.576Z,49.50
2023-03-28T03:14:30.479Z,49.70
2023-03-28T03:16:59.179Z,49.80
2023-03-28T03:19:28.079Z,49.50
2023-03-28T03:21:57.775Z,49.90
2023-03-28T03:24:25.765Z,50.20
2023-03-28T03:26:53.923Z,49.70
2023-03-28T03:29:26.306Z,49.20
2023-03-28T03:32:07.182Z,49.00
2023-03-28T03:34:34.943Z,49.50
2023-03-28T03:39:46.237Z,50.20
2023-03-28T03:42:14.962Z,50.20
2023-03-28T03:44:45.076Z,50.20
2023-03-28T03:47:13.337Z,50.00
2023-03-28T03:49:40.817Z,50.50
2023-03-28T03:52:19.798Z,50.40
2023-03-28T03:54:49.571Z,50.20
2023-03-28T03:57:27.428Z,50.00
2023-03-28T04:00:01.372Z,50.00
2023-03-28T04:05:13.272Z,50.50
2023-03-28T04:10:30.035Z,51.20
2023-03-28T04:13:08.505Z,51.20
2023-03-28T04:15:36.878Z,51.40
2023-03-28T04:18:09.537Z,51.70
2023-03-28T04:20:42.380Z,51.90
2023-03-28T04:23:10.398Z,51.50
2023-03-28T04:25:38.137Z,51.70
2023-03-28T04:28:11.349Z,52.00
2023-03-28T04:30:40.395Z,52.00
2023-03-28T04:33:09.422Z,52.30
2023-03-28T04:35:37.515Z,52.60
2023-03-28T04:41:00.389Z,52.60
2023-03-28T04:54:25.572Z,52.20
2023-03-28T04:59:43.887Z,52.40
2023-03-28T05:10:21.556Z,52.90
2023-03-28T05:18:23.780Z,52.20
2023-03-28T05:20:53.586Z,52.60
2023-03-28T05:31:33.164Z,52.10
2023-03-28T05:50:26.377Z,50.40
2023-03-28T06:15:28.842Z,47.20
2023-03-28T06:20:43.031Z,44.90
2023-03-28T06:23:12.410Z,45.40
2023-03-28T06:25:40.039Z,43.80
2023-03-28T06:28:10.527Z,43.20
2023-03-28T06:30:42.091Z,43.00
2023-03-28T06:33:11.733Z,43.50
2023-03-28T06:35:43.962Z,43.40
2023-03-28T06:38:18.248Z,43.30
2023-03-28T06:40:48.997Z,43.50
2023-03-28T06:43:17.530Z,43.80
2023-03-28T06:45:47.368Z,43.40
2023-03-28T06:48:17.230Z,42.30
2023-03-28T06:50:53.042Z,42.70
2023-03-28T06:53:20.876Z,42.40
2023-03-28T06:55:50.743Z,42.30
2023-03-28T06:58:21.125Z,42.50
2023-03-28T07:00:48.334Z,41.70
2023-03-28T07:03:15.752Z,41.50
2023-03-28T07:05:43.333Z,42.00
2023-03-28T07:08:11.512Z,41.50
2023-03-28T07:10:40.099Z,41.10
2023-03-28T07:13:08.420Z,42.30
2023-03-28T07:15:38.776Z,41.80
2023-03-28T07:18:10.691Z,41.80
2023-03-28T07:21:03.858Z,40.70
2023-03-28T07:26:34.922Z,38.40
2023-03-28T07:29:10.292Z,38.40
2023-03-28T07:31:37.997Z,36.70
2023-03-28T07:34:06.668Z,35.80
2023-03-28T07:36:34.132Z,34.70
2023-03-28T07:39:09.055Z,34.00
2023-03-28T07:41:36.991Z,35.10
2023-03-28T07:44:04.685Z,34.60
2023-03-28T07:46:32.636Z,33.80
2023-03-28T07:49:02.127Z,32.30
2023-03-28T07:51:32.553Z,31.10
2023-03-28T07:56:26.968Z,29.50
2023-03-28T07:58:55.211Z,30.00
2023-03-28T08:01:23.170Z,29.90
2023-03-28T08:03:50.651Z,31.00
2023-03-28T08:06:31.599Z,30.00
2023-03-28T08:09:00.047Z,29.90
2023-03-28T08:11:28.371Z,28.90
2023-03-28T08:13:56.460Z,28.10
2023-03-28T08:16:26.322Z,28.20
2023-03-28T08:19:03.942Z,28.10
2023-03-28T08:21:37.911Z,27.50
2023-03-28T08:30:11.887Z,25.20
2023-03-28T08:32:39.407Z,25.60
2023-03-28T08:35:07.910Z,25.60
2023-03-28T08:37:36.124Z,24.60
2023-03-28T08:40:09.042Z,24.70
2023-03-28T08:42:48.379Z,23.30
2023-03-28T08:45:41.950Z,22.90
2023-03-28T08:48:15.467Z,22.80
2023-03-28T08:50:44.998Z,23.00
2023-03-28T08:53:22.442Z,22.80
2023-03-28T08:55:51.134Z,22.60
2023-03-28T08:58:21.675Z,22.70
2023-03-28T09:00:52.479Z,23.20
2023-03-28T09:03:23.281Z,23.40
2023-03-28T09:06:09.922Z,22.00
2023-03-28T09:08:44.307Z,22.10
2023-03-28T09:11:31.530Z,22.40
2023-03-28T09:14:09.161Z,22.40
2023-03-28T09:16:54.440Z,22.20
2023-03-28T09:19:52.876Z,23.30
2023-03-28T09:22:44.193Z,23.70
2023-03-28T09:25:55.626Z,25.20
2023-03-28T09:29:03.109Z,26.80
2023-03-28T09:31:37.587Z,26.80
2023-03-28T09:34:08.376Z,27.70
2023-03-28T09:36:48.411Z,27.20
2023-03-28T09:39:42.999Z,28.00
2023-03-28T09:42:16.394Z,27.90
2023-03-28T09:45:10.678Z,28.20
2023-03-28T09:47:38.138Z,27.60
2023-03-28T09:50:12.959Z,27.90
2023-03-28T09:52:45.464Z,27.90
2023-03-28T09:55:21.236Z,27.10
2023-03-28T09:58:01.961Z,28.70
2023-03-28T10:00:36.104Z,28.90
2023-03-28T10:03:04.415Z,29.40
2023-03-28T10:05:37.340Z,29.30
2023-03-28T10:08:20.970Z,29.40
2023-03-28T10:11:13.569Z,30.20
2023-03-28T10:13:42.601Z,29.90
2023-03-28T10:16:13.381Z,29.10
2023-03-28T10:18:41.043Z,28.30
2023-03-28T10:21:21.330Z,26.30
2023-03-28T10:24:03.637Z,24.30
2023-03-28T10:27:53.897Z,22.60
2023-03-28T10:30:26.359Z,22.20
2023-03-28T10:33:21.187Z,23.10
2023-03-28T10:36:10.143Z,24.20
2023-03-28T10:42:45.705Z,23.90
2023-03-28T10:45:41.093Z,22.20
2023-03-28T10:48:19.208Z,21.70
2023-03-28T11:01:08.268Z,21.20
2023-03-28T11:03:58.220Z,21.50
2023-03-28T11:06:43.708Z,22.10
2023-03-28T11:09:33.359Z,23.00
2023-03-28T11:12:07.639Z,24.20
2023-03-28T11:15:26.451Z,24.90
2023-03-28T11:18:14.757Z,23.20
2023-03-28T11:20:46.048Z,23.00
2023-03-28T11:23:29.067Z,22.40
2023-03-28T11:26:04.887Z,22.00
2023-03-28T11:28:50.672Z,23.00
2023-03-28T11:31:38.609Z,23.50
2023-03-28T11:34:22.393Z,24.30
2023-03-28T11:36:54.650Z,24.70
2023-03-28T11:39:37.822Z,25.20
2023-03-28T11:42:18.709Z,25.20
2023-03-28T11:45:59.061Z,24.80
2023-03-28T11:48:30.896Z,23.00
2023-03-28T11:51:26.048Z,21.10
2023-03-28T11:54:06.052Z,21.00
2023-03-28T12:11:03.779Z,21.90
2023-03-28T12:14:08.985Z,22.20
2023-03-28T12:29:44.461Z,25.60
2023-03-28T12:32:33.537Z,23.10
2023-03-28T12:35:07.813Z,22.20
2023-03-28T12:38:01.105Z,22.00
2023-03-28T12:40:53.605Z,21.40
2023-03-28T12:43:29.829Z,20.30
2023-03-28T12:50:06.717Z,19.80
2023-03-28T12:52:45.874Z,19.70
2023-03-28T12:55:25.534Z,20.30
2023-03-28T12:58:11.866Z,21.00
2023-03-28T13:00:50.052Z,21.80
2023-03-28T13:03:34.387Z,23.30
2023-03-28T13:06:34.612Z,23.40
2023-03-28T13:09:17.850Z,24.90
2023-03-28T13:12:00.269Z,25.70
2023-03-28T13:14:35.902Z,25.60
2023-03-28T13:17:27.616Z,25.60
2023-03-28T13:19:59.990Z,24.70
2023-03-28T13:25:22.892Z,26.20
2023-03-28T13:27:51.781Z,26.70
2023-03-28T13:30:27.829Z,26.80
2023-03-28T13:33:00.240Z,27.60
2023-03-28T13:35:59.336Z,25.90
2023-03-28T13:38:36.569Z,24.50
2023-03-28T13:41:11.575Z,22.70
2023-03-28T13:43:58.454Z,22.80
2023-03-28T13:46:41.819Z,23.10
2023-03-28T13:49:31.870Z,23.60
2023-03-28T13:52:07.868Z,24.20
2023-03-28T13:54:47.774Z,25.10
2023-03-28T13:57:18.467Z,25.20
2023-03-28T13:59:54.986Z,25.50
2023-03-28T14:02:50.412Z,27.00
2023-03-28T14:05:21.946Z,28.70
2023-03-28T14:07:50.617Z,30.70
2023-03-28T14:10:26.176Z,31.60
2023-03-28T14:12:55.282Z,33.20
2023-03-28T14:15:29.334Z,33.30
2023-03-28T14:18:02.221Z,31.80
2023-03-28T14:23:37.477Z,29.00
2023-03-28T14:26:20.448Z,28.00
2023-03-28T14:28:52.190Z,27.90
2023-03-28T14:31:36.138Z,27.80
2023-03-28T14:34:20.509Z,28.70
2023-03-28T14:37:33.651Z,29.40
2023-03-28T14:40:01.948Z,29.70
2023-03-28T14:43:17.695Z,29.50
2023-03-28T14:45:56.652Z,30.60
2023-03-28T14:48:28.617Z,30.90
2023-03-28T14:50:57.222Z,31.80
2023-03-28T14:53:26.388Z,31.10
2023-03-28T14:56:06.646Z,31.70
2023-03-28T14:58:34.839Z,31.50
2023-03-28T15:01:05.434Z,31.50
2023-03-28T15:03:40.030Z,31.30
2023-03-28T15:06:11.595Z,31.70
2023-03-28T15:08:39.835Z,31.50
2023-03-28T15:11:23.107Z,31.00
2023-03-28T15:13:57.116Z,30.60
2023-03-28T15:16:28.137Z,30.40
2023-03-28T15:19:24.395Z,30.90
2023-03-28T15:21:56.288Z,30.90
2023-03-28T15:24:24.072Z,30.50
2023-03-28T15:26:54.132Z,30.40
2023-03-28T15:29:22.675Z,30.40
2023-03-28T15:31:50.275Z,30.60
2023-03-28T15:34:29.958Z,30.40
2023-03-28T15:37:05.646Z,30.90
2023-03-28T15:39:34.713Z,31.30
2023-03-28T15:59:54.954Z,29.90
2023-03-28T16:05:42.462Z,30.60
2023-03-28T16:08:46.312Z,30.10
